Time;durP1;ratioP1;P1;durP2;ratioP2;P2;SDS_P1;SDS_P2;PMS_P1;PMS_P2;Temp;Humidity;BMP_temperature;BMP_pressure;BME280_temperature;BME280_humidity;BME280_pressure;Samples;Min_cycle;Max_cycle;Signal;HPM_P1;HPM_P2
2023/08/26 00:02:25;;;;;;;6.20;4.10;;;;;;;22.22;nan;99036.47;5052142;28;20185;-75
2023/08/26 00:04:51;;;;;;;5.97;4.23;;;;;;;22.24;nan;99026.44;5045820;28;20233;-75
2023/08/26 00:07:16;;;;;;;5.20;4.00;;;;;;;22.20;nan;99019.81;5042587;28;20517;-75
2023/08/26 00:09:42;;;;;;;6.70;4.37;;;;;;;22.19;nan;99034.19;5051321;28;20208;-75
2023/08/26 00:12:07;;;;;;;5.07;4.60;;;;;;;22.23;nan;99035.47;5040215;28;20198;-75
2023/08/26 00:14:32;;;;;;;7.33;5.43;;;;;;;22.26;nan;99028.94;5052896;28;20219;-76
2023/08/26 00:16:58;;;;;;;5.53;3.83;;;;;;;22.27;nan;99017.19;5044067;28;20219;-75
2023/08/26 00:19:24;;;;;;;6.70;4.80;;;;;;;22.23;nan;99019.44;5054087;28;20230;-75
2023/08/26 00:21:50;;;;;;;5.70;4.80;;;;;;;22.24;nan;99020.25;5053299;28;20196;-75
2023/08/26 00:24:17;;;;;;;9.27;5.60;;;;;;;22.27;nan;99033.25;5052699;28;20238;-75
2023/08/26 00:26:42;;;;;;;5.27;4.77;;;;;;;22.28;nan;99032.25;5055870;28;20478;-75
2023/08/26 00:29:07;;;;;;;8.93;4.40;;;;;;;22.29;nan;99029.38;5033622;28;20502;-75
2023/08/26 00:31:34;;;;;;;5.27;4.63;;;;;;;22.30;nan;99039.09;5048863;28;20260;-75
2023/08/26 00:34:02;;;;;;;6.00;5.03;;;;;;;22.32;nan;99057.59;5050812;28;20264;-75
2023/08/26 00:36:28;;;;;;;11.70;7.50;;;;;;;22.38;nan;99053.34;5023751;28;20420;-76
2023/08/26 00:38:53;;;;;;;5.80;5.00;;;;;;;22.38;nan;99045.31;5045029;28;20247;-75
2023/08/26 00:41:19;;;;;;;8.00;5.53;;;;;;;22.37;nan;99024.94;5045053;28;20209;-75
2023/08/26 00:43:44;;;;;;;8.20;6.23;;;;;;;22.36;nan;99025.94;5030718;28;20234;-75
2023/08/26 00:46:10;;;;;;;6.20;5.60;;;;;;;22.35;nan;99030.47;5033694;28;20223;-75
2023/08/26 00:48:35;;;;;;;7.03;5.50;;;;;;;22.29;nan;99034.72;5046601;28;20226;-74
2023/08/26 00:51:01;;;;;;;7.27;5.90;;;;;;;22.27;nan;99025.22;5021798;28;20223;-75
2023/08/26 00:53:26;;;;;;;7.67;5.77;;;;;;;22.27;nan;99022.56;5031680;28;20201;-75
2023/08/26 00:55:52;;;;;;;6.03;5.23;;;;;;;22.30;nan;99030.19;5030514;28;20201;-75
2023/08/26 00:58:18;;;;;;;7.43;5.07;;;;;;;22.34;nan;99034.19;5051743;28;22850;-75
2023/08/26 01:00:44;;;;;;;6.87;5.33;;;;;;;22.39;nan;99055.03;5015601;28;20201;-75
2023/08/26 01:03:10;;;;;;;8.17;5.47;;;;;;;22.44;nan;99053.44;5049412;28;21883;-75
2023/08/26 01:05:35;;;;;;;7.60;6.00;;;;;;;22.46;nan;99066.63;5040969;28;20892;-75
2023/08/26 01:08:03;;;;;;;9.23;6.60;;;;;;;22.43;nan;99064.31;5033568;28;21295;-75
2023/08/26 01:11:04;;;;;;;7.50;5.37;;;;;;;22.42;nan;99065.34;5032753;28;20238;-75
2023/08/26 01:13:58;;;;;;;7.80;5.83;;;;;;;22.40;nan;99070.06;5032967;28;20494;-75
2023/08/26 01:16:24;;;;;;;7.43;5.70;;;;;;;22.36;nan;99066.94;5044343;28;20426;-74
2023/08/26 01:18:50;;;;;;;8.83;6.70;;;;;;;22.35;nan;99067.09;5032611;28;20443;-75
2023/08/26 01:21:19;;;;;;;5.60;5.07;;;;;;;22.34;nan;99063.59;5033472;28;20470;-75
2023/08/26 01:23:46;;;;;;;8.73;6.70;;;;;;;22.35;nan;99061.75;5035196;28;20429;-75
2023/08/26 01:26:12;;;;;;;10.93;6.23;;;;;;;22.33;nan;99063.78;5029652;28;20471;-75
2023/08/26 01:28:38;;;;;;;9.33;7.07;;;;;;;22.30;nan;99063.16;5034762;28;20447;-75
2023/08/26 01:31:09;;;;;;;10.60;5.53;;;;;;;22.31;nan;99063.97;5017644;28;20240;-75
2023/08/26 01:33:44;;;;;;;8.80;5.57;;;;;;;22.33;nan;99061.09;5049893;28;20561;-75
2023/08/26 01:36:16;;;;;;;7.50;6.50;;;;;;;22.29;nan;99060.66;5032883;28;20438;-76
2023/08/26 01:38:43;;;;;;;8.90;6.47;;;;;;;22.26;nan;99072.56;5022324;28;20470;-75
2023/08/26 01:41:10;;;;;;;6.80;5.70;;;;;;;22.28;nan;99070.53;5042053;28;20426;-75
2023/08/26 01:43:36;;;;;;;6.50;5.30;;;;;;;22.33;nan;99063.78;5046774;28;20454;-75
2023/08/26 01:46:01;;;;;;;10.53;6.43;;;;;;;22.37;nan;99076.59;5051290;28;21045;-75
2023/08/26 01:48:27;;;;;;;8.77;6.30;;;;;;;22.40;nan;99075.41;5032557;28;20454;-75
2023/08/26 01:50:52;;;;;;;11.07;6.10;;;;;;;22.41;nan;99069.03;5034587;28;20633;-75
2023/08/26 01:53:18;;;;;;;8.57;6.47;;;;;;;22.44;nan;99077.53;5029597;28;20188;-75
2023/08/26 01:55:43;;;;;;;7.50;5.63;;;;;;;22.47;nan;99074.47;5051014;28;20219;-75
2023/08/26 01:58:08;;;;;;;8.50;5.90;;;;;;;22.50;nan;99078.63;5029772;28;20194;-75
2023/08/26 02:00:34;;;;;;;9.00;5.70;;;;;;;22.53;nan;99071.03;5031287;28;20212;-75
2023/08/26 02:02:59;;;;;;;7.93;5.80;;;;;;;22.57;nan;99074.16;5031184;28;20295;-75
2023/08/26 02:05:25;;;;;;;7.10;5.93;;;;;;;22.57;nan;99062.63;5047073;28;20431;-75
2023/08/26 02:07:50;;;;;;;9.03;6.20;;;;;;;22.57;nan;99058.09;5048951;28;20279;-75
2023/08/26 02:10:16;;;;;;;11.50;6.67;;;;;;;22.55;nan;99054.81;5029872;28;20206;-75
2023/08/26 02:12:41;;;;;;;7.57;6.60;;;;;;;22.56;nan;99063.66;5036086;28;20244;-75
2023/08/26 02:15:07;;;;;;;8.50;6.00;;;;;;;22.50;nan;99063.41;5028466;28;20235;-75
2023/08/26 02:17:34;;;;;;;7.57;5.70;;;;;;;22.47;nan;99062.94;5039570;28;20201;-75
2023/08/26 02:19:59;;;;;;;11.10;6.07;;;;;;;22.46;nan;99053.25;5050425;28;20542;-75
2023/08/26 02:22:25;;;;;;;11.80;6.60;;;;;;;22.44;nan;99069.50;5026270;28;20632;-75
2023/08/26 02:24:51;;;;;;;8.30;6.33;;;;;;;22.46;nan;99069.31;5045915;28;20209;-75
2023/08/26 02:27:17;;;;;;;7.33;5.83;;;;;;;22.47;nan;99077.16;5029818;28;20227;-75
2023/08/26 02:29:43;;;;;;;8.70;6.50;;;;;;;22.50;nan;99065.25;5046392;28;20836;-75
2023/08/26 02:32:08;;;;;;;10.17;6.53;;;;;;;22.51;nan;99073.06;5051606;28;20208;-75
2023/08/26 02:34:34;;;;;;;7.80;6.63;;;;;;;22.54;nan;99072.69;5031430;28;20197;-75
2023/08/26 02:37:00;;;;;;;8.60;6.20;;;;;;;22.54;nan;99077.22;5029087;28;20300;-74
2023/08/26 02:39:26;;;;;;;10.87;6.57;;;;;;;22.52;nan;99073.88;5046499;28;20940;-75
2023/08/26 02:41:51;;;;;;;7.97;5.83;;;;;;;22.50;nan;99067.91;5015766;28;20201;-75
2023/08/26 02:44:17;;;;;;;8.70;6.53;;;;;;;22.45;nan;99059.63;5047503;28;20208;-75
2023/08/26 02:46:42;;;;;;;7.60;6.57;;;;;;;22.39;nan;99061.19;5029318;28;20817;-75
2023/08/26 02:49:08;;;;;;;9.57;7.10;;;;;;;22.38;nan;99074.75;5031606;28;20204;-75
2023/08/26 02:51:34;;;;;;;7.17;6.20;;;;;;;22.37;nan;99073.94;5032383;28;20471;-75
2023/08/26 02:53:59;;;;;;;11.60;7.50;;;;;;;22.37;nan;99075.78;5029641;28;20201;-75
2023/08/26 02:56:24;;;;;;;6.93;6.17;;;;;;;22.38;nan;99080.94;5045692;28;20239;-75
2023/08/26 02:58:50;;;;;;;8.53;7.00;;;;;;;22.41;nan;99077.06;5031605;28;20204;-75
2023/08/26 03:01:17;;;;;;;9.97;7.40;;;;;;;22.44;nan;99079.34;5047702;28;20279;-74
2023/08/26 03:03:44;;;;;;;8.53;6.47;;;;;;;22.48;nan;99067.28;5032926;28;20457;-75
2023/08/26 03:06:09;;;;;;;9.20;7.57;;;;;;;22.51;nan;99074.94;5033103;28;20428;-75
2023/08/26 03:08:35;;;;;;;7.20;6.23;;;;;;;22.53;nan;99064.88;5035720;28;20205;-75
2023/08/26 03:11:05;;;;;;;9.27;7.17;;;;;;;22.53;nan;99067.53;5030902;28;20988;-74
2023/08/26 03:13:31;;;;;;;14.07;7.03;;;;;;;22.54;nan;99085.25;5037176;28;20193;-75
2023/08/26 03:16:10;;;;;;;8.50;6.67;;;;;;;22.53;nan;99086.28;5025372;28;20479;-75
2023/08/26 03:18:36;;;;;;;8.10;6.43;;;;;;;22.55;nan;99094.97;5032389;28;20456;-78
2023/08/26 03:21:07;;;;;;;9.13;7.50;;;;;;;22.56;nan;99098.47;5034382;28;20425;-78
2023/08/26 03:23:34;;;;;;;9.30;6.63;;;;;;;22.58;nan;99096.44;5055345;28;20482;-78
2023/08/26 03:26:00;;;;;;;7.80;7.00;;;;;;;22.57;nan;99095.56;5035918;28;21096;-78
2023/08/26 03:28:26;;;;;;;10.03;6.73;;;;;;;22.57;nan;99097.44;5052822;28;20450;-77
2023/08/26 03:30:51;;;;;;;9.30;7.20;;;;;;;22.55;nan;99089.59;5034893;28;20491;-78
2023/08/26 03:33:18;;;;;;;9.10;6.40;;;;;;;22.56;nan;99093.09;5025411;28;20201;-77
2023/08/26 03:35:43;;;;;;;9.30;6.67;;;;;;;22.53;nan;99087.09;5034266;28;20201;-78
2023/08/26 03:38:09;;;;;;;12.03;7.17;;;;;;;22.53;nan;99087.09;5039295;28;20885;-77
2023/08/26 03:40:39;;;;;;;8.30;7.40;;;;;;;22.54;nan;99091.44;5050049;28;20477;-78
2023/08/26 03:43:05;;;;;;;7.90;7.10;;;;;;;22.54;nan;99087.94;5032762;28;20242;-78
2023/08/26 03:45:31;;;;;;;7.67;6.17;;;;;;;22.52;nan;99092.63;5035886;28;20467;-78
2023/08/26 03:48:00;;;;;;;9.40;6.63;;;;;;;22.50;nan;99092.84;5052832;28;20451;-78
2023/08/26 03:50:25;;;;;;;9.30;6.73;;;;;;;22.48;nan;99102.88;5047650;28;20482;-77
2023/08/26 03:52:51;;;;;;;7.20;6.40;;;;;;;22.46;nan;99094.22;5055169;28;20991;-78
2023/08/26 03:55:16;;;;;;;9.90;6.93;;;;;;;22.44;nan;99104.28;5032447;28;20708;-78
2023/08/26 03:57:42;;;;;;;9.80;6.10;;;;;;;22.41;nan;99101.97;5035044;28;20205;-78
2023/08/26 04:00:07;;;;;;;10.00;7.37;;;;;;;22.41;nan;99098.47;5048942;28;20269;-77
2023/08/26 04:02:33;;;;;;;8.40;5.90;;;;;;;22.38;nan;99102.34;5049643;28;20201;-78
2023/08/26 04:04:59;;;;;;;7.53;6.30;;;;;;;22.34;nan;99110.94;5101331;23;21272;-75
2023/08/26 04:07:24;;;;;;;10.93;6.43;;;;;;;22.30;nan;99116.69;5034834;28;20204;-74
2023/08/26 04:09:49;;;;;;;10.50;6.43;;;;;;;22.26;nan;99119.91;5025594;28;21096;-75
2023/08/26 04:12:15;;;;;;;7.30;6.20;;;;;;;22.23;nan;99117.59;5032287;28;20213;-74
2023/08/26 04:14:40;;;;;;;6.97;5.87;;;;;;;22.20;nan;99115.28;5038628;28;20288;-75
2023/08/26 04:17:05;;;;;;;6.67;5.13;;;;;;;22.18;nan;99125.31;5054237;28;20209;-75
2023/08/26 04:19:32;;;;;;;15.40;6.60;;;;;;;22.17;nan;99132.50;5036896;28;20288;-74
2023/08/26 04:21:59;;;;;;;8.50;6.60;;;;;;;22.16;nan;99121.97;5050912;28;20270;-75
2023/08/26 04:24:25;;;;;;;9.10;7.50;;;;;;;22.12;nan;99118.84;5035543;28;20464;-75
2023/08/26 04:26:50;;;;;;;12.50;6.33;;;;;;;22.09;nan;99129.91;5029776;28;20463;-75
2023/08/26 04:29:15;;;;;;;10.17;6.90;;;;;;;22.05;nan;99126.75;5034670;28;20288;-75
2023/08/26 04:31:41;;;;;;;12.57;7.30;;;;;;;22.03;nan;99138.66;5048772;28;20888;-76
2023/08/26 04:34:06;;;;;;;8.30;6.47;;;;;;;22.01;nan;99136.19;5051730;28;20296;-74
2023/08/26 04:36:33;;;;;;;8.43;6.90;;;;;;;22.01;nan;99138.84;5037490;28;20778;-75
2023/08/26 04:38:58;;;;;;;7.83;6.87;;;;;;;22.04;nan;99148.34;5051716;28;20455;-74
2023/08/26 04:41:24;;;;;;;9.60;6.73;;;;;;;22.05;nan;99155.34;5046702;28;20193;-73
2023/08/26 04:43:52;;;;;;;7.23;6.40;;;;;;;22.05;nan;99156.19;5037512;28;20200;-75
2023/08/26 04:46:18;;;;;;;8.77;7.17;;;;;;;22.07;nan;99150.66;5035402;28;20324;-76
2023/08/26 04:48:44;;;;;;;8.10;7.27;;;;;;;22.09;nan;99140.63;5049957;28;20459;-76
2023/08/26 04:51:10;;;;;;;8.13;6.97;;;;;;;22.14;nan;99156.91;5050982;28;20436;-76
2023/08/26 04:53:35;;;;;;;9.00;6.63;;;;;;;22.14;nan;99148.06;5036497;28;20602;-76
2023/08/26 04:56:02;;;;;;;7.00;5.67;;;;;;;22.10;nan;99152.97;5036013;28;21005;-81
2023/08/26 04:58:28;;;;;;;7.53;5.87;;;;;;;22.08;nan;99158.50;5041681;28;21429;-79
2023/08/26 05:00:54;;;;;;;9.47;6.13;;;;;;;22.07;nan;99156.84;5029099;28;20500;-78
2023/08/26 05:03:19;;;;;;;8.87;5.47;;;;;;;22.07;nan;99159.50;5027193;28;20384;-82
2023/08/26 05:05:48;;;;;;;8.23;5.90;;;;;;;22.09;nan;99162.03;5045477;28;20946;-78
2023/08/26 05:08:14;;;;;;;6.43;4.70;;;;;;;22.07;nan;99158.69;5029547;28;20205;-79
2023/08/26 05:10:39;;;;;;;10.90;4.77;;;;;;;22.01;nan;99160.25;5030641;28;20470;-82
2023/08/26 05:13:05;;;;;;;9.30;5.33;;;;;;;21.93;nan;99165.69;5028067;28;21352;-82
2023/08/26 05:15:32;;;;;;;5.50;4.80;;;;;;;21.85;nan;99166.56;5044206;28;20744;-78
2023/08/26 05:17:57;;;;;;;5.60;4.50;;;;;;;21.80;nan;99166.28;5028786;28;20204;-82
2023/08/26 05:20:23;;;;;;;7.93;5.37;;;;;;;21.79;nan;99164.63;5031230;28;20458;-80
2023/08/26 05:22:49;;;;;;;7.13;5.53;;;;;;;21.80;nan;99158.25;5052826;28;20287;-79
2023/08/26 05:25:14;;;;;;;7.90;4.73;;;;;;;21.81;nan;99165.25;5051454;28;20994;-81
2023/08/26 05:27:40;;;;;;;7.43;4.97;;;;;;;21.80;nan;99166.28;5039671;28;20259;-80
2023/08/26 05:30:07;;;;;;;5.00;4.37;;;;;;;21.73;nan;99162.66;5037289;28;20208;-82
2023/08/26 05:32:39;;;;;;;9.10;5.03;;;;;;;21.66;nan;99159.06;5039152;28;20945;-80
2023/08/26 05:35:06;;;;;;;5.13;3.70;;;;;;;21.60;nan;99165.09;5022394;28;20955;-78
2023/08/26 05:37:32;;;;;;;5.87;4.77;;;;;;;21.56;nan;99164.66;5031551;28;20457;-78
2023/08/26 05:39:58;;;;;;;5.73;4.87;;;;;;;21.57;nan;99171.63;5040346;28;20446;-78
2023/08/26 05:42:23;;;;;;;7.43;4.80;;;;;;;21.58;nan;99180.50;5059393;28;20220;-81
2023/08/26 05:44:49;;;;;;;5.57;5.00;;;;;;;21.59;nan;99172.31;5045568;28;20576;-81
2023/08/26 05:47:16;;;;;;;6.87;4.27;;;;;;;21.65;nan;99173.41;5042106;28;20569;-81
2023/08/26 05:49:41;;;;;;;5.77;4.30;;;;;;;21.67;nan;99171.41;5042807;28;20473;-78
2023/08/26 05:52:07;;;;;;;8.00;5.67;;;;;;;21.69;nan;99177.41;5043084;28;20222;-80
2023/08/26 05:54:32;;;;;;;6.20;4.70;;;;;;;21.73;nan;99183.22;5054572;28;20212;-79
2023/08/26 05:56:57;;;;;;;8.63;3.97;;;;;;;21.76;nan;99181.00;5038404;28;20189;-78
2023/08/26 05:59:23;;;;;;;6.13;4.40;;;;;;;21.77;nan;99182.69;5050364;28;20286;-78
2023/08/26 06:01:48;;;;;;;6.90;4.20;;;;;;;21.76;nan;99182.84;5039225;28;20189;-78
2023/08/26 06:04:14;;;;;;;10.93;4.50;;;;;;;21.73;nan;99186.72;5038669;28;20193;-77
2023/08/26 06:06:40;;;;;;;6.53;5.17;;;;;;;21.71;nan;99193.25;5050202;28;20529;-80
2023/08/26 06:09:05;;;;;;;8.43;4.77;;;;;;;21.67;nan;99192.78;5035287;28;20208;-81
2023/08/26 06:11:31;;;;;;;5.20;4.53;;;;;;;21.65;nan;99192.97;5053082;28;20461;-76
2023/08/26 06:13:58;;;;;;;6.63;5.10;;;;;;;21.66;nan;99196.50;5036001;28;20197;-79
2023/08/26 06:16:24;;;;;;;5.93;5.13;;;;;;;21.66;nan;99188.47;5051718;28;20704;-77
2023/08/26 06:18:49;;;;;;;7.93;4.20;;;;;;;21.65;nan;99197.47;5052495;28;21048;-77
2023/08/26 06:21:15;;;;;;;4.70;4.30;;;;;;;21.64;nan;99193.16;5045953;28;20197;-79
2023/08/26 06:23:41;;;;;;;6.00;4.50;;;;;;;21.63;nan;99189.66;5047657;28;20265;-76
2023/08/26 06:26:06;;;;;;;4.07;3.67;;;;;;;21.62;nan;99190.66;5031830;28;20217;-81
2023/08/26 06:28:33;;;;;;;9.10;4.63;;;;;;;21.60;nan;99184.69;5032395;28;20198;-77
2023/08/26 06:30:59;;;;;;;4.03;3.63;;;;;;;21.54;nan;99184.53;5029328;28;20465;-77
2023/08/26 06:33:28;;;;;;;9.50;4.70;;;;;;;21.48;nan;99174.56;5035852;28;20567;-80
2023/08/26 06:35:53;;;;;;;6.37;5.00;;;;;;;21.42;nan;99171.59;5052473;28;20981;-77
2023/08/26 06:38:19;;;;;;;5.43;4.50;;;;;;;21.43;nan;99180.44;5037669;28;20466;-77
2023/08/26 06:40:52;;;;;;;5.63;5.13;;;;;;;21.48;nan;99177.25;5034872;28;20745;-78
2023/08/26 06:43:18;;;;;;;6.93;4.50;;;;;;;21.52;nan;99186.56;5053436;28;20283;-77
2023/08/26 06:45:44;;;;;;;5.73;4.83;;;;;;;21.56;nan;99193.22;5036807;28;20489;-80
2023/08/26 06:48:09;;;;;;;7.97;4.90;;;;;;;21.61;nan;99193.50;5038228;28;20192;-77
2023/08/26 06:50:35;;;;;;;7.07;4.37;;;;;;;21.63;nan;99189.66;5051373;28;20270;-78
2023/08/26 06:53:00;;;;;;;5.40;4.37;;;;;;;21.63;nan;99170.13;5051469;28;20628;-80
2023/08/26 06:55:25;;;;;;;9.60;5.40;;;;;;;21.62;nan;99152.41;5052372;28;20196;-77
2023/08/26 06:57:51;;;;;;;7.07;5.50;;;;;;;21.58;nan;99162.63;5049878;28;20559;-77
2023/08/26 07:00:18;;;;;;;5.40;4.03;;;;;;;21.55;nan;99170.16;5049966;28;20196;-79
2023/08/26 07:02:43;;;;;;;8.67;5.53;;;;;;;21.56;nan;99180.69;5052123;28;20203;-81
2023/08/26 07:05:09;;;;;;;5.20;4.17;;;;;;;21.56;nan;99174.50;5050684;28;20728;-77
2023/08/26 07:07:36;;;;;;;5.00;4.33;;;;;;;21.54;nan;99168.50;5051177;28;20201;-78
2023/08/26 07:10:02;;;;;;;4.73;3.80;;;;;;;21.51;nan;99159.00;5051743;28;20201;-77
2023/08/26 07:12:28;;;;;;;8.13;3.80;;;;;;;21.49;nan;99166.34;5034963;28;20459;-80
2023/08/26 07:14:53;;;;;;;5.40;3.70;;;;;;;21.48;nan;99175.41;5051524;28;20447;-78
2023/08/26 07:17:18;;;;;;;5.93;4.40;;;;;;;21.51;nan;99174.22;5050585;28;20200;-79
2023/08/26 07:19:44;;;;;;;6.93;4.30;;;;;;;21.53;nan;99172.19;5049375;28;20395;-77
2023/08/26 07:22:09;;;;;;;4.87;3.87;;;;;;;21.57;nan;99181.50;5050346;28;20200;-78
2023/08/26 07:24:35;;;;;;;4.93;4.10;;;;;;;21.61;nan;99175.63;5052741;28;20205;-78
2023/08/26 07:27:00;;;;;;;6.00;3.93;;;;;;;21.65;nan;99184.94;5052479;28;20204;-77
2023/08/26 07:29:26;;;;;;;5.70;3.80;;;;;;;21.65;nan;99173.41;5030812;28;20201;-79
2023/08/26 07:31:51;;;;;;;3.70;3.13;;;;;;;21.62;nan;99177.28;5053591;28;20790;-81
2023/08/26 07:34:17;;;;;;;5.77;4.00;;;;;;;21.66;nan;99175.09;5055081;28;20916;-78
2023/08/26 07:36:43;;;;;;;8.37;4.70;;;;;;;21.71;nan;99171.88;5054538;28;20247;-79
2023/08/26 07:39:08;;;;;;;4.53;4.13;;;;;;;21.76;nan;99164.97;5055896;28;20201;-79
2023/08/26 07:41:35;;;;;;;5.53;4.50;;;;;;;21.77;nan;99169.31;5052869;28;20279;-80
2023/08/26 07:44:00;;;;;;;5.90;3.63;;;;;;;21.77;nan;99169.31;5055137;28;20197;-77
2023/08/26 07:46:26;;;;;;;6.90;5.83;;;;;;;21.77;nan;99169.31;5053722;28;20558;-76
2023/08/26 07:48:51;;;;;;;7.70;3.33;;;;;;;21.73;nan;99162.66;5052729;28;20754;-76
2023/08/26 07:51:17;;;;;;;5.97;4.63;;;;;;;21.72;nan;99150.31;5054754;28;20561;-76
2023/08/26 07:53:43;;;;;;;5.90;4.30;;;;;;;21.74;nan;99161.66;5052897;28;20545;-77
2023/08/26 07:56:08;;;;;;;6.57;3.90;;;;;;;21.80;nan;99160.94;5056688;28;21226;-79
2023/08/26 07:58:34;;;;;;;5.50;4.10;;;;;;;21.86;nan;99168.22;5056264;28;20207;-76
2023/08/26 08:00:59;;;;;;;5.80;4.40;;;;;;;21.91;nan;99164.19;5049574;28;20951;-77
2023/08/26 08:03:25;;;;;;;5.87;3.37;;;;;;;21.95;nan;99176.16;5047921;28;20324;-80
2023/08/26 08:05:51;;;;;;;5.67;4.00;;;;;;;21.92;nan;99171.19;5052669;28;21492;-77
2023/08/26 08:08:16;;;;;;;4.80;3.40;;;;;;;21.90;nan;99174.06;5051121;28;20592;-79
2023/08/26 08:10:42;;;;;;;8.77;5.53;;;;;;;21.92;nan;99172.00;5051617;28;20209;-81
2023/08/26 08:13:08;;;;;;;5.30;3.60;;;;;;;21.95;nan;99170.81;5051793;28;20216;-77
2023/08/26 08:15:34;;;;;;;5.87;3.80;;;;;;;22.00;nan;99168.44;5051491;28;20212;-80
2023/08/26 08:17:59;;;;;;;5.07;3.90;;;;;;;22.03;nan;99176.91;5054480;28;20441;-78
2023/08/26 08:20:25;;;;;;;4.47;3.60;;;;;;;22.06;nan;99173.91;5053360;28;20673;-77
2023/08/26 08:22:50;;;;;;;4.20;3.37;;;;;;;22.12;nan;99169.66;5051347;28;20218;-77
2023/08/26 08:25:16;;;;;;;5.53;3.60;;;;;;;22.19;nan;99170.63;5053192;28;20217;-81
2023/08/26 08:27:41;;;;;;;6.53;4.67;;;;;;;22.25;nan;99177.06;5052663;28;20198;-78
2023/08/26 08:30:07;;;;;;;3.00;2.70;;;;;;;22.28;nan;99160.69;5051993;28;20189;-79
2023/08/26 08:32:33;;;;;;;3.53;2.87;;;;;;;22.31;nan;99155.78;5051669;28;20403;-81
2023/08/26 08:35:03;;;;;;;7.27;3.40;;;;;;;22.38;nan;99161.22;5053289;28;20447;-79
2023/08/26 08:37:29;;;;;;;5.30;3.20;;;;;;;22.44;nan;99160.50;5050797;28;20788;-82
2023/08/26 08:39:55;;;;;;;5.30;2.80;;;;;;;22.51;nan;99163.25;5051861;28;20978;-77
2023/08/26 08:42:21;;;;;;;11.00;4.80;;;;;;;22.56;nan;99170.72;5052335;28;20913;-80
2023/08/26 08:44:48;;;;;;;7.93;2.93;;;;;;;22.58;nan;99172.22;5050102;28;20467;-79
2023/08/26 08:47:15;;;;;;;3.63;3.00;;;;;;;22.58;nan;99168.72;5052508;28;21371;-78
2023/08/26 08:49:43;;;;;;;4.30;2.93;;;;;;;22.57;nan;99170.53;5047697;28;20506;-81
2023/08/26 08:52:09;;;;;;;4.70;3.33;;;;;;;22.59;nan;99163.16;5052360;28;20945;-77
2023/08/26 08:54:35;;;;;;;6.10;3.33;;;;;;;22.65;nan;99159.72;5051548;28;20466;-77
2023/08/26 08:57:03;;;;;;;4.30;3.00;;;;;;;22.72;nan;99152.59;5051572;28;20447;-79
2023/08/26 08:59:32;;;;;;;6.70;3.27;;;;;;;22.79;nan;99151.84;5050693;28;20286;-79
2023/08/26 09:02:18;;;;;;;5.30;3.30;;;;;;;22.83;nan;99166.53;5101369;22;20464;-91
2023/08/26 09:04:57;;;;;;;6.80;3.63;;;;;;;22.82;nan;99159.50;5033138;28;20433;-92
2023/08/26 09:07:26;;;;;;;17.37;3.40;;;;;;;22.83;nan;99158.50;5059371;28;20967;-91
2023/08/26 09:10:07;;;;;;;4.67;3.20;;;;;;;22.83;nan;99162.00;5066582;28;21066;-93
2023/08/26 09:12:47;;;;;;;4.53;3.00;;;;;;;22.84;nan;99157.47;5062703;28;20433;-93
2023/08/26 09:15:15;;;;;;;4.33;3.20;;;;;;;22.80;nan;99153.53;5065646;28;20421;-92
2023/08/26 09:17:57;;;;;;;;;;;;;;;;;;;;;
2023/08/26 09:20:30;;;;;;;3.77;3.40;;;;;;;22.66;nan;99153.38;5063617;28;21326;-93
2023/08/26 09:23:15;;;;;;;4.13;3.60;;;;;;;22.59;nan;99151.63;5054542;28;20553;-92
2023/08/26 09:26:12;;;;;;;5.23;3.47;;;;;;;22.52;nan;99160.41;5072910;28;20458;-92
2023/08/26 09:28:55;;;;;;;;;;;;;;;;;;;;;
2023/08/26 09:31:51;;;;;;;3.90;3.00;;;;;;;22.51;nan;99150.69;5069862;28;20514;-93
2023/08/26 09:34:43;;;;;;;5.20;3.60;;;;;;;22.55;nan;99156.53;5075607;28;20438;-93
2023/08/26 09:37:15;;;;;;;5.88;4.72;;;;;;;22.58;nan;99158.81;5069681;28;20573;-91
2023/08/26 09:39:47;;;;;;;4.30;3.77;;;;;;;22.61;nan;99147.75;5063361;28;20288;-91
2023/08/26 09:42:17;;;;;;;5.00;3.60;;;;;;;22.63;nan;99155.56;5058575;28;20457;-92
2023/08/26 09:45:00;;;;;;;5.57;3.97;;;;;;;22.64;nan;99167.94;5061201;28;20465;-92
2023/08/26 09:47:39;;;;;;;;;;;;;;;;;;;;;
2023/08/26 09:50:11;;;;;;;3.63;3.00;;;;;;;22.60;nan;99182.72;5061177;28;20437;-92
2023/08/26 09:52:52;;;;;;;6.70;3.93;;;;;;;22.53;nan;99183.47;5046509;28;20468;-92
2023/08/26 09:55:21;;;;;;;4.20;3.80;;;;;;;22.47;nan;99180.72;5067304;28;20465;-92
2023/08/26 09:58:16;;;;;;;;;;;;;;;;;;;;;
2023/08/26 10:00:51;;;;;;;3.67;3.13;;;;;;;22.35;nan;99192.88;5059914;28;20826;-92
2023/08/26 10:03:30;;;;;;;4.63;3.10;;;;;;;22.29;nan;99184.56;5053339;28;20421;-93
2023/08/26 10:06:07;;;;;;;3.93;2.83;;;;;;;22.26;nan;99184.94;5056570;28;20453;-91
2023/08/26 10:08:36;;;;;;;6.33;2.70;;;;;;;22.23;nan;99179.13;5053802;28;20436;-91
2023/08/26 10:11:04;;;;;;;3.83;2.67;;;;;;;22.22;nan;99167.56;5056352;28;20933;-92
2023/08/26 10:13:35;;;;;;;3.60;3.30;;;;;;;22.26;nan;99182.25;5056660;28;20466;-92
2023/08/26 10:16:15;;;;;;;4.50;2.43;;;;;;;22.31;nan;99181.72;5056918;28;21314;-91
2023/08/26 10:18:55;;;;;;;5.30;3.00;;;;;;;22.31;nan;99182.53;5054930;28;20449;-93
2023/08/26 10:21:22;;;;;;;5.73;2.43;;;;;;;22.28;nan;99184.75;5055756;28;20971;-93
2023/08/26 10:23:59;;;;;;;;;;;;;;;;;;;;;
2023/08/26 10:26:39;;;;;;;6.97;2.97;;;;;;;22.16;nan;99184.31;5054706;28;20722;-92
2023/08/26 10:29:08;;;;;;;3.83;2.50;;;;;;;22.12;nan;99183.03;5057490;28;20452;-92
2023/08/26 10:31:45;;;;;;;4.00;3.00;;;;;;;22.10;nan;99183.22;5054770;28;21015;-92
2023/08/26 10:34:17;;;;;;;3.73;2.63;;;;;;;22.06;nan;99183.75;5056571;28;20440;-93
2023/08/26 10:36:47;;;;;;;5.00;3.00;;;;;;;22.02;nan;99190.50;5054589;28;20444;-94
2023/08/26 10:39:18;;;;;;;3.80;2.87;;;;;;;21.97;nan;99200.91;5054679;28;20658;-93
2023/08/26 10:42:14;;;;;;;3.90;2.70;;;;;;;21.88;nan;99208.16;5056188;28;20463;-92
2023/08/26 10:45:06;;;;;;;6.03;3.50;;;;;;;21.80;nan;99203.72;5053805;28;20777;-92
2023/08/26 10:48:00;;;;;;;3.97;2.93;;;;;;;21.80;nan;99194.88;5068471;28;20544;-93
2023/08/26 10:51:04;;;;;;;6.10;2.60;;;;;;;21.84;nan;99183.63;5064190;28;20478;-93
2023/08/26 10:53:53;;;;;;;;;;;;;;;;;;;;;
2023/08/26 10:56:44;;;;;;;;;;;;;;;;;;;;;
2023/08/26 11:11:39;;;;;;;;;;;;;;;;;;;;;
2023/08/26 11:18:11;;;;;;;6.57;3.87;;;;;;;21.40;nan;99184.31;5038547;22;20518;-79
2023/08/26 11:20:38;;;;;;;5.40;3.07;;;;;;;21.40;nan;99196.84;5014536;28;20870;-78
2023/08/26 11:23:04;;;;;;;5.67;2.43;;;;;;;21.39;nan;99197.84;5015533;28;20518;-78
2023/08/26 11:25:30;;;;;;;2.50;2.30;;;;;;;21.36;nan;99207.03;5018955;28;21023;-79
2023/08/26 11:28:15;;;;;;;3.97;3.17;;;;;;;21.33;nan;99209.19;5017306;28;20431;-78
2023/08/26 11:30:43;;;;;;;4.37;3.73;;;;;;;21.27;nan;99208.06;5015802;28;20237;-79
2023/08/26 11:33:11;;;;;;;3.90;3.57;;;;;;;21.25;nan;99225.28;5016228;28;20454;-80
2023/08/26 11:35:38;;;;;;;9.10;3.50;;;;;;;21.25;nan;99228.78;5011654;28;20526;-79
2023/08/26 11:38:05;;;;;;;4.90;3.33;;;;;;;21.25;nan;99231.44;5012628;28;20792;-80
2023/08/26 11:40:31;;;;;;;4.60;2.90;;;;;;;21.25;nan;99228.78;5012865;28;20855;-81
2023/08/26 11:42:57;;;;;;;5.47;2.90;;;;;;;21.23;nan;99236.16;5012167;28;20778;-79
2023/08/26 11:45:24;;;;;;;3.03;2.73;;;;;;;21.23;nan;99235.31;5011817;28;20981;-81
2023/08/26 11:47:52;;;;;;;6.70;2.97;;;;;;;21.23;nan;99236.16;5015556;28;20499;-79
2023/08/26 11:50:17;;;;;;;3.53;3.07;;;;;;;21.19;nan;99240.16;5013338;28;20985;-80
2023/08/26 11:52:43;;;;;;;3.23;2.30;;;;;;;21.17;nan;99237.69;5011279;28;20477;-79
2023/08/26 11:55:09;;;;;;;4.03;2.97;;;;;;;21.17;nan;99232.34;5015914;28;20209;-79
2023/08/26 11:57:38;;;;;;;3.77;3.37;;;;;;;21.14;nan;99237.19;5013986;28;22413;-78
2023/08/26 12:00:12;;;;;;;6.20;4.10;;;;;;;21.07;nan;99239.72;5015901;28;20450;-78
2023/08/26 12:02:38;;;;;;;3.43;3.13;;;;;;;20.99;nan;99229.09;5016851;28;20564;-80
2023/08/26 12:05:04;;;;;;;5.03;3.10;;;;;;;20.92;nan;99222.75;5016137;28;20453;-80
2023/08/26 12:07:30;;;;;;;3.33;2.80;;;;;;;20.88;nan;99216.94;5017470;28;20614;-78
2023/08/26 12:09:57;;;;;;;3.40;2.80;;;;;;;20.90;nan;99211.41;5013317;28;20498;-83
2023/08/26 12:12:24;;;;;;;6.50;3.37;;;;;;;20.92;nan;99196.06;5013575;28;21031;-78
2023/08/26 12:14:50;;;;;;;4.17;3.57;;;;;;;20.89;nan;99199.09;5014006;28;23079;-81
2023/08/26 12:17:16;;;;;;;4.00;3.40;;;;;;;20.83;nan;99203.28;5011570;28;20523;-84
2023/08/26 12:19:43;;;;;;;6.57;3.80;;;;;;;20.78;nan;99206.47;5017140;28;20439;-78
2023/08/26 12:22:09;;;;;;;4.10;3.70;;;;;;;20.73;nan;99208.00;5013935;28;20987;-81